Time;durP1;ratioP1;P1;durP2;ratioP2;P2;SDS_P1;SDS_P2;PMS_P1;PMS_P2;Temp;Humidity;BMP_temperature;BMP_pressure;BME280_temperature;BME280_humidity;BME280_pressure;Samples;Min_cycle;Max_cycle;Signal;HPM_P1;HPM_P2
2021/05/25 00:01:15;;;;;;;1.50;0.60;;;;;;;;;;5062657;28;20025;-83
2021/05/25 00:03:42;;;;;;;6.13;0.63;;;;;;;;;;5063036;28;20068;-82
2021/05/25 00:06:08;;;;;;;3.05;0.57;;;;;;;;;;5062473;28;20075;-82
2021/05/25 00:08:34;;;;;;;0.65;0.52;;;;;;;;;;5060060;28;20120;-82
2021/05/25 00:11:00;;;;;;;0.93;0.60;;;;;;;;;;5059755;28;20496;-83
2021/05/25 00:13:26;;;;;;;2.78;0.60;;;;;;;;;;5060966;28;20028;-82
2021/05/25 00:15:53;;;;;;;1.35;0.60;;;;;;;;;;5055852;28;20025;-82
2021/05/25 00:18:19;;;;;;;1.50;0.60;;;;;;;;;;5052753;28;20380;-82
2021/05/25 00:20:45;;;;;;;0.40;0.40;;;;;;;;;;5060204;28;20059;-82
2021/05/25 00:23:11;;;;;;;0.47;0.45;;;;;;;;;;5057774;28;20056;-81
2021/05/25 00:25:38;;;;;;;2.60;0.90;;;;;;;;;;5057987;28;20545;-82
2021/05/25 00:28:04;;;;;;;0.88;0.50;;;;;;;;;;5060832;28;20029;-81
2021/05/25 00:30:45;;;;;;;0.65;0.50;;;;;;;;;;5060319;28;20510;-82
2021/05/25 00:33:11;;;;;;;0.75;0.63;;;;;;;;;;5058713;28;20056;-81
2021/05/25 00:35:39;;;;;;;0.93;0.50;;;;;;;;;;5060024;28;20021;-82
2021/05/25 00:38:06;;;;;;;3.15;0.75;;;;;;;;;;5059875;28;20025;-82
2021/05/25 00:40:32;;;;;;;0.50;0.47;;;;;;;;;;5059171;28;20130;-82
2021/05/25 00:42:58;;;;;;;1.50;0.50;;;;;;;;;;5058176;28;20086;-82
2021/05/25 00:45:24;;;;;;;4.13;0.63;;;;;;;;;;5057826;28;20044;-82
2021/05/25 00:47:50;;;;;;;3.72;0.80;;;;;;;;;;5059112;28;20037;-83
2021/05/25 00:50:18;;;;;;;2.40;0.45;;;;;;;;;;5059308;28;20052;-83
2021/05/25 00:52:46;;;;;;;1.13;0.70;;;;;;;;;;5058116;28;20027;-82
2021/05/25 00:55:16;;;;;;;2.13;0.60;;;;;;;;;;5059257;28;20175;-82
2021/05/25 00:57:43;;;;;;;0.68;0.50;;;;;;;;;;5060923;28;20026;-83
2021/05/25 01:00:10;;;;;;;0.50;0.40;;;;;;;;;;5059497;28;20029;-82
2021/05/25 01:02:36;;;;;;;2.00;0.40;;;;;;;;;;5060590;28;20051;-82
2021/05/25 01:05:04;;;;;;;1.40;0.50;;;;;;;;;;5060702;28;20033;-83
2021/05/25 01:07:30;;;;;;;2.50;0.50;;;;;;;;;;5058988;28;20024;-82
2021/05/25 01:10:00;;;;;;;2.10;0.30;;;;;;;;;;5059237;28;20028;-82
2021/05/25 01:12:30;;;;;;;1.20;0.63;;;;;;;;;;5061065;28;20033;-82
2021/05/25 01:15:00;;;;;;;1.25;0.30;;;;;;;;;;5061798;28;20024;-82
2021/05/25 01:17:26;;;;;;;1.20;0.50;;;;;;;;;;5060595;28;20044;-82
2021/05/25 01:19:52;;;;;;;2.83;0.60;;;;;;;;;;5061639;28;20032;-83
2021/05/25 01:22:18;;;;;;;0.63;0.30;;;;;;;;;;5061979;28;20021;-82
2021/05/25 01:24:44;;;;;;;0.90;0.68;;;;;;;;;;5061929;28;20033;-82
2021/05/25 01:27:10;;;;;;;2.60;0.70;;;;;;;;;;5063249;28;20052;-82
2021/05/25 01:29:37;;;;;;;1.15;0.40;;;;;;;;;;5062873;28;20021;-82
2021/05/25 01:32:04;;;;;;;0.98;0.40;;;;;;;;;;5061216;28;20041;-83
2021/05/25 01:34:30;;;;;;;1.38;0.60;;;;;;;;;;5061295;28;20024;-82
2021/05/25 01:36:56;;;;;;;0.90;0.25;;;;;;;;;;5063343;28;20021;-82
2021/05/25 01:39:22;;;;;;;0.45;0.30;;;;;;;;;;5069250;28;20021;-81
2021/05/25 01:41:55;;;;;;;0.85;0.32;;;;;;;;;;5072306;28;20039;-82
2021/05/25 01:44:22;;;;;;;1.48;0.30;;;;;;;;;;5072514;28;20025;-82
2021/05/25 01:46:48;;;;;;;2.40;0.50;;;;;;;;;;5072177;28;20025;-83
2021/05/25 01:49:15;;;;;;;0.43;0.20;;;;;;;;;;5071283;28;20033;-82
2021/05/25 01:51:51;;;;;;;1.83;0.47;;;;;;;;;;5081721;22;20073;-81
2021/05/25 01:54:18;;;;;;;0.43;0.30;;;;;;;;;;5064684;28;20068;-81
2021/05/25 01:56:44;;;;;;;1.23;0.50;;;;;;;;;;5054426;28;20117;-82
2021/05/25 01:59:10;;;;;;;0.77;0.40;;;;;;;;;;5063571;28;20433;-82
2021/05/25 02:01:37;;;;;;;3.72;0.40;;;;;;;;;;5065628;28;20079;-82
2021/05/25 02:04:03;;;;;;;1.90;0.60;;;;;;;;;;5050234;28;20473;-82
2021/05/25 02:06:30;;;;;;;1.08;0.40;;;;;;;;;;5048993;28;20029;-81
2021/05/25 02:08:57;;;;;;;0.45;0.40;;;;;;;;;;5046211;28;20044;-82
2021/05/25 02:11:23;;;;;;;1.77;0.45;;;;;;;;;;5052745;28;20358;-81
2021/05/25 02:13:49;;;;;;;2.65;0.55;;;;;;;;;;5070252;28;20021;-81
2021/05/25 02:16:16;;;;;;;0.45;0.30;;;;;;;;;;5073157;28;20020;-82
2021/05/25 02:18:46;;;;;;;1.52;0.45;;;;;;;;;;5080491;28;20036;-82
2021/05/25 02:21:13;;;;;;;0.95;0.60;;;;;;;;;;5088214;28;20031;-81
2021/05/25 02:23:40;;;;;;;1.67;0.60;;;;;;;;;;5071666;28;20061;-80
2021/05/25 02:26:06;;;;;;;1.70;0.30;;;;;;;;;;5075174;28;20082;-81
2021/05/25 02:28:33;;;;;;;0.70;0.47;;;;;;;;;;5074808;28;20045;-81
2021/05/25 02:30:59;;;;;;;2.53;0.68;;;;;;;;;;5074632;28;20017;-81
2021/05/25 02:33:25;;;;;;;2.70;0.43;;;;;;;;;;5070486;28;20025;-82
2021/05/25 02:35:56;;;;;;;1.45;0.43;;;;;;;;;;5069450;28;20047;-82
2021/05/25 02:38:22;;;;;;;1.98;0.60;;;;;;;;;;5068645;28;20032;-83
2021/05/25 02:40:50;;;;;;;1.15;0.40;;;;;;;;;;5068892;28;20021;-82
2021/05/25 02:43:18;;;;;;;0.98;0.45;;;;;;;;;;5068003;28;20523;-82
2021/05/25 02:45:45;;;;;;;1.33;0.60;;;;;;;;;;5081739;28;20124;-81
2021/05/25 02:48:11;;;;;;;2.17;0.60;;;;;;;;;;5077335;28;20122;-81
2021/05/25 02:50:38;;;;;;;3.33;0.73;;;;;;;;;;5074623;28;20048;-82
2021/05/25 02:53:04;;;;;;;2.00;0.65;;;;;;;;;;5074207;28;20084;-81
2021/05/25 02:55:35;;;;;;;1.00;0.43;;;;;;;;;;5075870;28;20064;-82
2021/05/25 02:58:03;;;;;;;2.75;0.45;;;;;;;;;;5074114;28;20017;-82
2021/05/25 03:00:31;;;;;;;3.88;0.68;;;;;;;;;;5070886;28;20083;-82
2021/05/25 03:02:57;;;;;;;1.88;0.45;;;;;;;;;;5067136;28;20047;-82
2021/05/25 03:05:25;;;;;;;3.38;0.70;;;;;;;;;;5068669;28;20033;-82
2021/05/25 03:07:52;;;;;;;2.60;0.70;;;;;;;;;;5069647;28;20064;-82
2021/05/25 03:10:19;;;;;;;1.17;0.40;;;;;;;;;;5068042;28;20032;-82
2021/05/25 03:12:45;;;;;;;2.13;1.25;;;;;;;;;;5066182;28;20029;-82
2021/05/25 03:15:14;;;;;;;3.72;0.80;;;;;;;;;;5063937;28;20028;-82
2021/05/25 03:17:40;;;;;;;2.92;0.52;;;;;;;;;;5082194;28;20266;-82
2021/05/25 03:20:07;;;;;;;1.20;0.90;;;;;;;;;;5068226;28;20032;-82
2021/05/25 03:22:33;;;;;;;3.70;0.90;;;;;;;;;;5067603;28;20025;-82
2021/05/25 03:25:00;;;;;;;1.58;0.60;;;;;;;;;;5075355;28;20215;-82
2021/05/25 03:27:26;;;;;;;2.25;0.60;;;;;;;;;;5071769;28;20044;-82
2021/05/25 03:29:52;;;;;;;1.42;0.50;;;;;;;;;;5068059;28;20041;-82
2021/05/25 03:32:19;;;;;;;1.98;0.55;;;;;;;;;;5056142;28;20017;-80
2021/05/25 03:34:45;;;;;;;2.28;0.55;;;;;;;;;;5069255;28;20147;-81
2021/05/25 03:37:11;;;;;;;1.75;0.57;;;;;;;;;;5085552;28;20013;-81
2021/05/25 03:39:37;;;;;;;2.72;0.70;;;;;;;;;;5096271;28;20028;-81
2021/05/25 03:42:03;;;;;;;2.55;0.55;;;;;;;;;;5087672;28;20032;-81
2021/05/25 03:44:29;;;;;;;2.17;0.57;;;;;;;;;;5059358;28;20095;-81
2021/05/25 03:46:55;;;;;;;1.17;0.40;;;;;;;;;;5075385;28;20028;-81
2021/05/25 03:49:21;;;;;;;0.93;0.63;;;;;;;;;;5059739;28;20032;-80
2021/05/25 03:51:47;;;;;;;2.97;0.70;;;;;;;;;;5051187;28;20033;-81
2021/05/25 03:54:19;;;;;;;0.50;0.50;;;;;;;;;;5040910;28;20417;-81
2021/05/25 03:56:53;;;;;;;2.65;0.63;;;;;;;;;;5046205;28;20393;-82
2021/05/25 03:59:19;;;;;;;3.45;0.60;;;;;;;;;;5047227;28;20025;-82
2021/05/25 04:01:45;;;;;;;2.00;0.55;;;;;;;;;;5052719;28;20029;-81
2021/05/25 04:04:11;;;;;;;1.90;0.80;;;;;;;;;;5063733;28;20025;-82
2021/05/25 04:06:39;;;;;;;0.80;0.40;;;;;;;;;;5065159;28;20060;-82
2021/05/25 04:09:05;;;;;;;0.90;0.60;;;;;;;;;;5066753;28;20029;-82
2021/05/25 04:11:32;;;;;;;0.45;0.45;;;;;;;;;;5068031;28;20132;-81
2021/05/25 04:13:59;;;;;;;1.10;0.57;;;;;;;;;;5075957;28;20017;-81
2021/05/25 04:16:25;;;;;;;1.55;0.52;;;;;;;;;;5075718;28;20025;-82
2021/05/25 04:18:51;;;;;;;3.50;0.50;;;;;;;;;;5080750;28;20021;-82
2021/05/25 04:21:17;;;;;;;4.32;0.60;;;;;;;;;;5053824;28;20036;-81
2021/05/25 04:23:43;;;;;;;3.30;0.57;;;;;;;;;;5040966;28;20025;-81
2021/05/25 04:26:09;;;;;;;1.38;0.70;;;;;;;;;;5039764;28;20051;-81
2021/05/25 04:28:36;;;;;;;0.93;0.30;;;;;;;;;;5041001;28;20386;-81
2021/05/25 04:31:02;;;;;;;0.43;0.40;;;;;;;;;;5040219;28;20079;-82
2021/05/25 04:33:29;;;;;;;3.95;0.80;;;;;;;;;;5057904;28;20029;-83
2021/05/25 04:35:55;;;;;;;4.28;0.60;;;;;;;;;;5061738;28;20032;-81
2021/05/25 04:38:21;;;;;;;2.30;0.63;;;;;;;;;;5060764;28;20026;-81
2021/05/25 04:40:47;;;;;;;3.17;0.82;;;;;;;;;;5059566;28;20029;-81
2021/05/25 04:43:13;;;;;;;3.38;0.70;;;;;;;;;;5060899;28;20067;-81
2021/05/25 04:45:41;;;;;;;2.20;0.50;;;;;;;;;;5069906;28;20023;-81
2021/05/25 04:48:08;;;;;;;1.98;0.60;;;;;;;;;;5074762;28;20047;-81
2021/05/25 04:50:35;;;;;;;2.08;0.77;;;;;;;;;;5063512;28;20037;-81
2021/05/25 04:53:01;;;;;;;3.15;0.70;;;;;;;;;;5059344;28;20177;-81
2021/05/25 04:55:27;;;;;;;2.13;0.70;;;;;;;;;;5060089;28;20132;-80
2021/05/25 04:57:53;;;;;;;1.27;0.50;;;;;;;;;;5059682;28;20031;-81
2021/05/25 05:00:23;;;;;;;4.97;0.50;;;;;;;;;;5051077;28;20021;-82
2021/05/25 05:02:50;;;;;;;1.70;0.50;;;;;;;;;;5041657;28;20041;-82
2021/05/25 05:05:16;;;;;;;2.58;0.50;;;;;;;;;;5040191;28;20036;-81
2021/05/25 05:07:43;;;;;;;1.73;0.60;;;;;;;;;;5046445;28;20556;-81
2021/05/25 05:10:10;;;;;;;2.30;0.47;;;;;;;;;;5052260;28;20021;-80
2021/05/25 05:12:36;;;;;;;1.88;0.95;;;;;;;;;;5042838;28;20036;-81
2021/05/25 05:15:03;;;;;;;1.00;0.50;;;;;;;;;;5051268;28;20127;-79
2021/05/25 05:17:29;;;;;;;1.27;0.70;;;;;;;;;;5052192;28;20013;-79
2021/05/25 05:19:56;;;;;;;2.78;0.68;;;;;;;;;;5061003;28;20028;-79
2021/05/25 05:22:22;;;;;;;4.80;0.80;;;;;;;;;;5070548;28;20021;-80
2021/05/25 05:24:49;;;;;;;1.88;0.55;;;;;;;;;;5062357;28;20033;-79
2021/05/25 05:27:15;;;;;;;4.93;0.65;;;;;;;;;;5062643;28;20115;-80
2021/05/25 05:29:41;;;;;;;4.13;0.75;;;;;;;;;;5060332;28;20055;-79
2021/05/25 05:32:07;;;;;;;5.45;0.70;;;;;;;;;;5059357;28;20025;-80
2021/05/25 05:34:34;;;;;;;2.75;0.52;;;;;;;;;;5061104;28;20024;-81
2021/05/25 05:37:00;;;;;;;4.53;0.60;;;;;;;;;;5053644;28;20049;-80
2021/05/25 05:39:32;;;;;;;3.78;0.85;;;;;;;;;;5032654;28;20038;-80
2021/05/25 05:42:00;;;;;;;2.05;0.77;;;;;;;;;;5053689;28;20042;-82
2021/05/25 05:44:26;;;;;;;1.75;0.93;;;;;;;;;;5052269;28;20053;-81
2021/05/25 05:46:52;;;;;;;15.07;12.23;;;;;;;;;;5060511;28;20033;-81
2021/05/25 05:49:21;;;;;;;19.60;14.07;;;;;;;;;;5073144;28;20028;-81
2021/05/25 05:51:47;;;;;;;11.75;5.90;;;;;;;;;;5071605;28;20104;-79
2021/05/25 05:54:14;;;;;;;4.95;1.80;;;;;;;;;;5066623;28;20060;-81
2021/05/25 05:56:40;;;;;;;12.60;3.22;;;;;;;;;;5065629;28;20021;-82
2021/05/25 05:59:06;;;;;;;4.05;2.90;;;;;;;;;;5066241;28;20036;-82
2021/05/25 06:01:32;;;;;;;8.63;3.60;;;;;;;;;;5053410;28;20329;-81
2021/05/25 06:03:58;;;;;;;14.40;9.02;;;;;;;;;;5070017;28;20036;-81
2021/05/25 06:06:25;;;;;;;8.68;4.00;;;;;;;;;;5074437;28;20029;-81
2021/05/25 06:08:51;;;;;;;8.10;3.38;;;;;;;;;;5069711;28;20040;-81
2021/05/25 06:11:17;;;;;;;11.30;4.40;;;;;;;;;;5068201;28;20028;-79
2021/05/25 06:13:43;;;;;;;12.82;7.60;;;;;;;;;;5068145;28;20420;-80
2021/05/25 06:16:10;;;;;;;8.60;2.33;;;;;;;;;;5074892;28;20206;-81
2021/05/25 06:18:36;;;;;;;16.15;7.50;;;;;;;;;;5066722;28;20022;-81
2021/05/25 06:21:03;;;;;;;13.57;6.75;;;;;;;;;;5046025;28;20029;-81
2021/05/25 06:23:29;;;;;;;7.72;4.32;;;;;;;;;;5046253;28;20100;-81
2021/05/25 06:25:56;;;;;;;8.90;5.75;;;;;;;;;;5048771;28;20087;-81
2021/05/25 06:28:22;;;;;;;13.02;5.70;;;;;;;;;;5067622;28;20112;-79
2021/05/25 06:30:49;;;;;;;9.88;4.05;;;;;;;;;;5058269;28;20075;-80
2021/05/25 06:33:15;;;;;;;3.70;1.85;;;;;;;;;;5052516;28;20040;-79
2021/05/25 06:35:41;;;;;;;3.80;1.98;;;;;;;;;;5059032;28;20025;-79
2021/05/25 06:38:07;;;;;;;5.78;2.75;;;;;;;;;;5067981;28;20096;-80
2021/05/25 06:40:33;;;;;;;5.28;1.23;;;;;;;;;;5074282;28;20048;-80
2021/05/25 06:42:59;;;;;;;2.30;0.70;;;;;;;;;;5070458;28;20009;-81
2021/05/25 06:45:28;;;;;;;5.00;1.00;;;;;;;;;;5070363;28;20138;-79
2021/05/25 06:47:54;;;;;;;2.15;0.73;;;;;;;;;;5070804;28;20055;-80
2021/05/25 06:50:20;;;;;;;3.08;0.73;;;;;;;;;;5064842;28;20062;-80
2021/05/25 06:52:46;;;;;;;4.97;0.77;;;;;;;;;;5066978;28;20062;-80
2021/05/25 06:55:13;;;;;;;4.03;1.05;;;;;;;;;;5068224;28;20029;-80
2021/05/25 06:57:39;;;;;;;4.47;1.17;;;;;;;;;;5069475;28;20036;-82
2021/05/25 07:00:06;;;;;;;5.45;1.13;;;;;;;;;;5075306;28;20036;-81
2021/05/25 07:02:33;;;;;;;3.92;1.20;;;;;;;;;;5075396;28;20037;-79
2021/05/25 07:04:59;;;;;;;2.83;0.88;;;;;;;;;;5074593;28;20005;-80
2021/05/25 07:07:25;;;;;;;2.70;0.50;;;;;;;;;;5075376;28;20024;-80
2021/05/25 07:09:51;;;;;;;3.05;0.95;;;;;;;;;;5070052;28;20029;-80
2021/05/25 07:12:18;;;;;;;3.50;0.80;;;;;;;;;;5067631;28;20033;-81
2021/05/25 07:14:45;;;;;;;4.93;0.63;;;;;;;;;;5061393;28;20029;-82
2021/05/25 07:17:11;;;;;;;2.83;0.60;;;;;;;;;;5073579;28;20035;-81
2021/05/25 07:19:38;;;;;;;3.40;0.95;;;;;;;;;;5066951;28;20646;-81
2021/05/25 07:22:04;;;;;;;10.48;4.00;;;;;;;;;;5065950;28;20048;-80
2021/05/25 07:24:30;;;;;;;19.40;8.43;;;;;;;;;;5068205;28;20032;-80
2021/05/25 07:26:57;;;;;;;13.70;5.93;;;;;;;;;;5072498;28;20042;-81
2021/05/25 07:29:23;;;;;;;7.55;3.90;;;;;;;;;;5071213;28;20039;-81
2021/05/25 07:31:49;;;;;;;6.55;2.50;;;;;;;;;;5054288;28;20021;-82
2021/05/25 07:34:16;;;;;;;4.63;2.47;;;;;;;;;;5044872;28;20021;-81
2021/05/25 07:36:42;;;;;;;2.33;1.92;;;;;;;;;;5044774;28;20092;-82
2021/05/25 07:39:08;;;;;;;52.72;17.08;;;;;;;;;;5063809;28;20036;-81
2021/05/25 07:41:34;;;;;;;41.10;16.85;;;;;;;;;;5066794;28;20021;-81
2021/05/25 07:44:00;;;;;;;18.02;9.38;;;;;;;;;;5069799;28;20070;-81
2021/05/25 07:46:27;;;;;;;4.53;2.47;;;;;;;;;;5082016;28;20028;-81
2021/05/25 07:48:54;;;;;;;8.75;4.40;;;;;;;;;;5074520;28;20504;-82
2021/05/25 07:51:21;;;;;;;3.05;2.03;;;;;;;;;;5055049;28;20047;-79
2021/05/25 07:53:47;;;;;;;3.92;1.73;;;;;;;;;;5053144;28;20055;-80
2021/05/25 07:56:13;;;;;;;3.00;1.25;;;;;;;;;;5064167;28;20117;-80
2021/05/25 07:58:39;;;;;;;3.95;1.20;;;;;;;;;;5069307;28;20016;-79
2021/05/25 08:01:05;;;;;;;3.15;1.20;;;;;;;;;;5053862;28;20176;-79
2021/05/25 08:03:31;;;;;;;3.40;1.02;;;;;;;;;;5039267;28;20026;-79
2021/05/25 08:05:59;;;;;;;2.60;0.82;;;;;;;;;;5039673;28;20029;-79
2021/05/25 08:08:25;;;;;;;5.38;1.08;;;;;;;;;;5040427;28;20029;-80
2021/05/25 08:11:01;;;;;;;3.42;1.10;;;;;;;;;;5038902;28;20022;-78
2021/05/25 08:13:28;;;;;;;4.10;0.80;;;;;;;;;;5037886;28;20084;-78
2021/05/25 08:15:55;;;;;;;5.03;0.82;;;;;;;;;;5061321;28;20074;-79
2021/05/25 08:20:53;;;;;;;3.13;0.88;;;;;;;;;;5042451;28;20040;-81
2021/05/25 08:23:31;;;;;;;6.00;1.00;;;;;;;;;;5043183;28;20029;-80
2021/05/25 08:26:06;;;;;;;3.38;1.02;;;;;;;;;;5047841;28;20024;-79
2021/05/25 08:28:41;;;;;;;2.63;0.75;;;;;;;;;;5077149;28;20024;-80
2021/05/25 08:31:07;;;;;;;3.42;0.60;;;;;;;;;;5050177;28;20052;-80
2021/05/25 08:33:33;;;;;;;5.03;0.98;;;;;;;;;;5038343;28;20045;-79
2021/05/25 08:36:00;;;;;;;5.78;1.17;;;;;;;;;;5040244;28;20021;-78
2021/05/25 08:38:26;;;;;;;3.35;0.68;;;;;;;;;;5038787;28;20076;-79
2021/05/25 08:40:54;;;;;;;1.35;0.70;;;;;;;;;;5055173;28;20339;-78
2021/05/25 08:43:21;;;;;;;4.38;0.65;;;;;;;;;;5058023;28;20064;-79
2021/05/25 08:45:47;;;;;;;5.20;0.68;;;;;;;;;;5058319;28;20604;-79
2021/05/25 08:48:13;;;;;;;1.52;0.73;;;;;;;;;;5067957;28;20029;-80
2021/05/25 08:50:39;;;;;;;2.50;0.80;;;;;;;;;;5044749;28;20486;-80
2021/05/25 08:53:06;;;;;;;5.03;1.02;;;;;;;;;;5035419;28;20025;-80
2021/05/25 08:55:34;;;;;;;3.50;0.80;;;;;;;;;;5053212;28;20079;-79
2021/05/25 08:58:00;;;;;;;3.92;0.80;;;;;;;;;;5056205;28;20025;-78
2021/05/25 09:00:26;;;;;;;1.58;0.50;;;;;;;;;;5058160;28;20029;-78
2021/05/25 09:02:53;;;;;;;2.35;0.57;;;;;;;;;;5060065;28;20025;-79
2021/05/25 09:05:20;;;;;;;1.90;0.50;;;;;;;;;;5057040;28;20050;-78
2021/05/25 09:07:47;;;;;;;1.95;0.68;;;;;;;;;;5057376;28;20351;-80
2021/05/25 09:10:34;;;;;;;1.52;0.60;;;;;;;;;;5054051;28;20021;-80
2021/05/25 09:13:00;;;;;;;1.02;0.80;;;;;;;;;;5035303;28;20026;-79
2021/05/25 09:15:58;;;;;;;2.55;0.77;;;;;;;;;;5044501;28;20109;-79
2021/05/25 09:18:27;;;;;;;3.08;0.73;;;;;;;;;;5059570;28;20047;-79
2021/05/25 09:20:57;;;;;;;1.80;0.52;;;;;;;;;;5043199;28;20020;-79
2021/05/25 09:23:24;;;;;;;4.32;0.75;;;;;;;;;;5053785;28;20043;-79
2021/05/25 09:26:05;;;;;;;3.95;1.35;;;;;;;;;;5047936;28;20036;-78
2021/05/25 09:28:31;;;;;;;7.32;2.53;;;;;;;;;;5045662;28;20025;-79
2021/05/25 09:30:58;;;;;;;7.63;1.52;;;;;;;;;;5044848;28;20028;-79
2021/05/25 09:33:24;;;;;;;4.43;0.95;;;;;;;;;;5045315;28;20022;-79
2021/05/25 09:35:52;;;;;;;4.53;0.75;;;;;;;;;;5042745;28;20445;-79
2021/05/25 09:38:19;;;;;;;3.45;0.60;;;;;;;;;;5045072;28;20552;-79
2021/05/25 09:40:53;;;;;;;3.30;0.73;;;;;;;;;;5045663;28;20028;-80
2021/05/25 09:43:19;;;;;;;1.45;0.80;;;;;;;;;;5044261;28;20033;-79
2021/05/25 09:45:57;;;;;;;2.83;0.95;;;;;;;;;;5065191;28;20019;-79
2021/05/25 09:48:23;;;;;;;5.07;0.60;;;;;;;;;;5068432;28;20021;-81
2021/05/25 09:50:57;;;;;;;2.60;0.82;;;;;;;;;;5086935;28;20025;-80
2021/05/25 09:53:30;;;;;;;0.93;0.55;;;;;;;;;;5085435;28;20028;-81
2021/05/25 09:56:22;;;;;;;1.38;0.75;;;;;;;;;;5092202;28;20041;-79
2021/05/25 09:58:48;;;;;;;3.67;0.73;;;;;;;;;;5073351;28;20092;-80
2021/05/25 10:01:15;;;;;;;5.10;0.57;;;;;;;;;;5099379;28;20093;-80
2021/05/25 10:03:57;;;;;;;3.17;0.80;;;;;;;;;;5093635;28;20112;-81
2021/05/25 10:06:25;;;;;;;2.08;0.60;;;;;;;;;;5091486;28;20116;-81
2021/05/25 10:08:52;;;;;;;1.65;0.82;;;;;;;;;;5068358;28;20021;-81
2021/05/25 10:11:19;;;;;;;3.80;0.70;;;;;;;;;;5056464;28;20074;-80
2021/05/25 10:13:46;;;;;;;4.63;0.50;;;;;;;;;;5053244;28;20029;-81
2021/05/25 10:16:15;;;;;;;5.88;0.90;;;;;;;;;;5073298;28;20475;-80
2021/05/25 10:21:11;;;;;;;2.25;0.63;;;;;;;;;;5054045;28;20041;-80
2021/05/25 10:23:39;;;;;;;2.83;0.52;;;;;;;;;;5056260;28;20048;-79
2021/05/25 10:26:37;;;;;;;2.83;0.50;;;;;;;;;;5067501;28;20025;-81
2021/05/25 10:29:04;;;;;;;1.10;0.65;;;;;;;;;;5072023;28;20037;-79
2021/05/25 10:31:35;;;;;;;1.35;0.60;;;;;;;;;;5081807;28;20337;-78
2021/05/25 10:34:12;;;;;;;8.82;1.17;;;;;;;;;;5080729;28;20093;-78
2021/05/25 10:36:46;;;;;;;3.42;0.70;;;;;;;;;;5070594;28;20100;-80
2021/05/25 10:39:43;;;;;;;2.65;1.38;;;;;;;;;;5059628;28;20497;-78
2021/05/25 10:42:19;;;;;;;0.40;0.40;;;;;;;;;;5053125;28;20397;-80
2021/05/25 10:44:51;;;;;;;0.95;0.50;;;;;;;;;;5055564;28;20057;-80
2021/05/25 10:47:20;;;;;;;5.75;0.90;;;;;;;;;;5060130;28;20115;-79
2021/05/25 10:49:53;;;;;;;2.13;0.52;;;;;;;;;;5076404;28;20051;-85
2021/05/25 10:52:19;;;;;;;4.32;0.98;;;;;;;;;;5059159;28;20037;-80
2021/05/25 10:54:53;;;;;;;2.80;0.85;;;;;;;;;;5055752;28;20102;-77
2021/05/25 10:57:40;;;;;;;2.72;1.08;;;;;;;;;;5056780;28;20282;-80
2021/05/25 11:00:16;;;;;;;3.20;0.70;;;;;;;;;;5046174;28;20029;-77
2021/05/25 11:02:42;;;;;;;2.83;1.58;;;;;;;;;;5072141;28;20033;-79
2021/05/25 11:05:27;;;;;;;3.20;0.70;;;;;;;;;;5048663;28;20077;-79
2021/05/25 11:07:56;;;;;;;1.67;0.70;;;;;;;;;;5046513;28;20370;-78
2021/05/25 11:10:28;;;;;;;3.50;0.75;;;;;;;;;;5042201;28;20037;-79
2021/05/25 11:13:13;;;;;;;2.05;0.70;;;;;;;;;;5036064;28;20036;-78
2021/05/25 11:15:58;;;;;;;4.38;0.70;;;;;;;;;;5039515;28;20113;-77
2021/05/25 11:18:34;;;;;;;4.88;0.85;;;;;;;;;;5060659;28;20021;-78
2021/05/25 11:21:18;;;;;;;3.60;0.73;;;;;;;;;;5082296;28;20092;-79
2021/05/25 11:23:50;;;;;;;0.90;0.55;;;;;;;;;;5080448;28;20051;-78
2021/05/25 11:26:39;;;;;;;2.38;0.88;;;;;;;;;;5063214;28;20045;-78
2021/05/25 11:29:14;;;;;;;2.30;0.60;;;;;;;;;;5046997;28;20041;-76
2021/05/25 11:31:40;;;;;;;5.68;0.77;;;;;;;;;;5064542;28;20020;-78
2021/05/25 11:34:06;;;;;;;3.00;0.70;;;;;;;;;;5071271;28;20021;-80
2021/05/25 11:36:34;;;;;;;6.45;0.75;;;;;;;;;;5056543;28;20039;-80
2021/05/25 11:39:01;;;;;;;1.08;0.45;;;;;;;;;;5059085;28;20362;-78
2021/05/25 11:41:27;;;;;;;3.60;0.82;;;;;;;;;;5055830;28;20119;-79
2021/05/25 11:44:07;;;;;;;2.00;0.50;;;;;;;;;;5054151;28;20074;-77
2021/05/25 11:46:43;;;;;;;5.10;0.57;;;;;;;;;;5064889;28;20500;-79
2021/05/25 11:49:11;;;;;;;4.65;0.82;;;;;;;;;;5077480;28;20028;-78
2021/05/25 11:51:37;;;;;;;2.70;0.85;;;;;;;;;;5067963;28;20032;-78
2021/05/25 11:54:32;;;;;;;3.40;0.60;;;;;;;;;;5055076;28;20029;-80
2021/05/25 11:56:59;;;;;;;2.70;0.73;;;;;;;;;;5035874;28;20073;-78
2021/05/25 11:59:25;;;;;;;3.15;1.23;;;;;;;;;;5039144;28;20104;-80
2021/05/25 12:01:53;;;;;;;12.15;4.93;;;;;;;;;;5062923;28;20454;-77
2021/05/25 12:04:20;;;;;;;8.98;2.83;;;;;;;;;;5054165;28;20037;-79
2021/05/25 12:06:51;;;;;;;4.05;1.30;;;;;;;;;;5055793;28;20036;-79
2021/05/25 12:09:17;;;;;;;6.65;2.22;;;;;;;;;;5056212;28;20060;-79
2021/05/25 12:11:44;;;;;;;3.17;1.30;;;;;;;;;;5057972;28;20021;-79
2021/05/25 12:14:11;;;;;;;8.52;2.88;;;;;;;;;;5046838;28;20048;-79
2021/05/25 12:16:37;;;;;;;7.90;2.50;;;;;;;;;;5052552;28;20041;-79
2021/05/25 12:19:07;;;;;;;5.30;2.33;;;;;;;;;;5091028;28;20024;-76
2021/05/25 12:21:35;;;;;;;16.58;5.70;;;;;;;;;;5080763;28;20096;-78
2021/05/25 12:24:02;;;;;;;10.82;4.43;;;;;;;;;;5072636;28;20017;-77
2021/05/25 12:26:28;;;;;;;11.80;6.28;;;;;;;;;;5051306;28;20032;-77
2021/05/25 12:28:56;;;;;;;7.00;2.63;;;;;;;;;;5055354;28;20073;-79
2021/05/25 12:31:28;;;;;;;5.57;4.38;;;;;;;;;;5057167;28;20088;-78
2021/05/25 12:33:54;;;;;;;;;;;;;;;;;;5055707;28;20446;-78
2021/05/25 12:36:29;;;;;;;10.98;5.90;;;;;;;;;;5034494;28;19920;-79
2021/05/25 12:38:59;;;;;;;4.68;1.35;;;;;;;;;;5033933;28;20338;-78
2021/05/25 12:41:25;;;;;;;2.95;1.05;;;;;;;;;;5041251;28;20098;-78
2021/05/25 12:43:58;;;;;;;4.88;0.82;;;;;;;;;;5054558;28;20325;-78
2021/05/25 12:46:24;;;;;;;7.35;3.80;;;;;;;;;;5059848;28;20032;-77
2021/05/25 12:48:51;;;;;;;8.38;2.80;;;;;;;;;;5055829;28;20041;-76
2021/05/25 12:51:25;;;;;;;4.57;1.90;;;;;;;;;;5056538;28;20039;-76
2021/05/25 12:53:55;;;;;;;4.57;2.30;;;;;;;;;;5055008;28;20100;-77
2021/05/25 12:56:22;;;;;;;5.93;1.55;;;;;;;;;;5053465;28;20123;-78
2021/05/25 12:58:49;;;;;;;1.95;1.20;;;;;;;;;;5053724;28;20024;-79
2021/05/25 13:01:28;;;;;;;2.88;1.15;;;;;;;;;;5057132;28;20037;-77
2021/05/25 13:04:14;;;;;;;2.83;1.52;;;;;;;;;;5061114;28;20025;-77
2021/05/25 13:06:57;;;;;;;1.70;0.88;;;;;;;;;;5057776;28;20039;-80
2021/05/25 13:09:35;;;;;;;3.17;1.45;;;;;;;;;;5044213;28;20033;-78
2021/05/25 13:12:04;;;;;;;1.23;1.13;;;;;;;;;;5037116;28;20045;-79
2021/05/25 13:14:31;;;;;;;3.50;1.20;;;;;;;;;;5046586;28;20021;-78
2021/05/25 13:17:00;;;;;;;2.95;1.00;;;;;;;;;;5038511;28;20105;-78
2021/05/25 13:19:33;;;;;;;2.70;0.77;;;;;;;;;;5079045;28;20072;-78
2021/05/25 13:22:00;;;;;;;2.80;1.50;;;;;;;;;;5072205;28;20057;-76
2021/05/25 13:24:26;;;;;;;1.85;0.73;;;;;;;;;;5057825;28;20497;-77
2021/05/25 13:26:52;;;;;;;4.63;0.80;;;;;;;;;;5058425;28;20025;-78
2021/05/25 13:29:20;;;;;;;2.15;0.55;;;;;;;;;;5057668;28;20111;-78
2021/05/25 13:31:47;;;;;;;0.77;0.60;;;;;;;;;;5056287;28;20022;-77
2021/05/25 13:34:24;;;;;;;2.85;0.60;;;;;;;;;;5059953;28;20026;-78
2021/05/25 13:36:52;;;;;;;4.65;1.10;;;;;;;;;;5061747;28;20021;-78
2021/05/25 13:39:19;;;;;;;4.35;0.93;;;;;;;;;;5064060;28;20443;-77
2021/05/25 13:41:46;;;;;;;2.83;0.60;;;;;;;;;;5058750;28;20036;-79
2021/05/25 13:44:13;;;;;;;5.47;1.10;;;;;;;;;;5060429;28;20068;-77
2021/05/25 13:46:40;;;;;;;1.75;0.70;;;;;;;;;;5069212;28;20043;-78
2021/05/25 13:49:06;;;;;;;4.50;0.98;;;;;;;;;;5060973;28;20033;-77
2021/05/25 13:51:33;;;;;;;6.30;0.95;;;;;;;;;;5065476;22;20072;-82
2021/05/25 13:54:00;;;;;;;3.58;1.05;;;;;;;;;;5063477;28;20025;-82
2021/05/25 13:56:51;;;;;;;4.28;0.82;;;;;;;;;;5066619;28;20055;-81
2021/05/25 13:59:18;;;;;;;4.45;1.23;;;;;;;;;;5065233;28;20029;-82
2021/05/25 14:01:45;;;;;;;7.80;4.05;;;;;;;;;;5053391;28;20037;-81
2021/05/25 14:04:16;;;;;;;5.07;2.13;;;;;;;;;;5043445;28;20037;-83
2021/05/25 14:06:43;;;;;;;14.48;1.88;;;;;;;;;;5043965;28;20091;-83
2021/05/25 14:09:09;;;;;;;3.78;1.00;;;;;;;;;;5040276;28;20052;-82
2021/05/25 14:11:36;;;;;;;4.10;0.93;;;;;;;;;;5040812;28;20034;-82
2021/05/25 14:14:02;;;;;;;2.15;0.85;;;;;;;;;;5043211;28;20035;-82
2021/05/25 14:16:29;;;;;;;2.90;0.80;;;;;;;;;;5040992;28;20017;-82
2021/05/25 14:18:58;;;;;;;1.25;0.63;;;;;;;;;;5047582;28;20466;-81
2021/05/25 14:21:25;;;;;;;2.35;0.77;;;;;;;;;;5046484;28;20080;-82
2021/05/25 14:23:53;;;;;;;1.95;1.10;;;;;;;;;;5039684;28;20030;-83
2021/05/25 14:26:19;;;;;;;7.03;1.00;;;;;;;;;;5026642;28;20045;-83
2021/05/25 14:28:45;;;;;;;4.45;0.80;;;;;;;;;;5025038;28;20057;-82
2021/05/25 14:31:11;;;;;;;4.18;0.70;;;;;;;;;;5025286;28;20025;-81
2021/05/25 14:33:38;;;;;;;2.03;1.20;;;;;;;;;;5025656;28;20026;-83
2021/05/25 14:36:06;;;;;;;5.07;1.83;;;;;;;;;;5023756;28;20212;-83
2021/05/25 14:38:32;;;;;;;4.43;1.02;;;;;;;;;;5024998;28;20486;-83
2021/05/25 14:40:58;;;;;;;2.00;1.10;;;;;;;;;;5027482;28;20049;-83
2021/05/25 14:43:24;;;;;;;4.95;1.30;;;;;;;;;;5026242;28;20343;-83
2021/05/25 14:45:50;;;;;;;9.68;1.23;;;;;;;;;;5025740;28;20046;-83
2021/05/25 14:48:16;;;;;;;1.95;1.05;;;;;;;;;;5042961;28;20055;-82
2021/05/25 14:50:43;;;;;;;4.57;1.95;;;;;;;;;;5044939;28;20466;-82
2021/05/25 14:53:17;;;;;;;2.92;1.58;;;;;;;;;;5042245;28;20025;-81
2021/05/25 14:55:48;;;;;;;4.55;1.40;;;;;;;;;;5043244;28;20018;-83